sensor_id;sensor_type;location;lat;lon;timestamp;P1;durP1;ratioP1;P2;durP2;ratioP2
13991;SDS011;7070;53.586;9.692;2022-07-05T00:00:54;0.40;;;0.40;;
13991;SDS011;7070;53.586;9.692;2022-07-05T00:03:21;0.40;;;0.40;;
13991;SDS011;7070;53.586;9.692;2022-07-05T00:05:48;0.40;;;0.40;;
13991;SDS011;7070;53.586;9.692;2022-07-05T00:08:15;0.50;;;0.50;;
13991;SDS011;7070;53.586;9.692;2022-07-05T00:10:42;0.40;;;0.40;;
13991;SDS011;7070;53.586;9.692;2022-07-05T00:13:10;0.40;;;0.40;;
13991;SDS011;7070;53.586;9.692;2022-07-05T00:15:37;0.50;;;0.50;;
13991;SDS011;7070;53.586;9.692;2022-07-05T00:18:04;0.50;;;0.50;;
13991;SDS011;7070;53.586;9.692;2022-07-05T00:20:31;0.43;;;0.43;;
13991;SDS011;7070;53.586;9.692;2022-07-05T00:22:58;0.50;;;0.50;;
13991;SDS011;7070;53.586;9.692;2022-07-05T00:25:25;0.43;;;0.43;;
13991;SDS011;7070;53.586;9.692;2022-07-05T00:27:52;0.40;;;0.40;;
13991;SDS011;7070;53.586;9.692;2022-07-05T00:30:20;0.43;;;0.43;;
13991;SDS011;7070;53.586;9.692;2022-07-05T00:32:47;0.40;;;0.40;;
13991;SDS011;7070;53.586;9.692;2022-07-05T00:35:14;0.50;;;0.50;;
13991;SDS011;7070;53.586;9.692;2022-07-05T00:37:41;0.40;;;0.40;;
13991;SDS011;7070;53.586;9.692;2022-07-05T00:40:08;0.40;;;0.40;;
13991;SDS011;7070;53.586;9.692;2022-07-05T00:42:35;0.40;;;0.40;;
13991;SDS011;7070;53.586;9.692;2022-07-05T00:45:03;0.40;;;0.40;;
13991;SDS011;7070;53.586;9.692;2022-07-05T00:47:32;0.40;;;0.40;;
13991;SDS011;7070;53.586;9.692;2022-07-05T00:49:59;0.40;;;0.40;;
13991;SDS011;7070;53.586;9.692;2022-07-05T00:52:26;0.43;;;0.43;;
13991;SDS011;7070;53.586;9.692;2022-07-05T00:54:52;0.40;;;0.40;;
13991;SDS011;7070;53.586;9.692;2022-07-05T00:57:20;0.40;;;0.40;;
13991;SDS011;7070;53.586;9.692;2022-07-05T00:59:48;0.43;;;0.43;;
13991;SDS011;7070;53.586;9.692;2022-07-05T01:02:15;0.40;;;0.40;;
13991;SDS011;7070;53.586;9.692;2022-07-05T01:04:46;0.50;;;0.50;;
13991;SDS011;7070;53.586;9.692;2022-07-05T01:07:14;0.43;;;0.43;;
13991;SDS011;7070;53.586;9.692;2022-07-05T01:09:41;0.40;;;0.40;;
13991;SDS011;7070;53.586;9.692;2022-07-05T01:12:09;0.47;;;0.47;;
13991;SDS011;7070;53.586;9.692;2022-07-05T01:14:36;0.40;;;0.40;;
13991;SDS011;7070;53.586;9.692;2022-07-05T01:17:03;0.40;;;0.40;;
13991;SDS011;7070;53.586;9.692;2022-07-05T01:19:30;0.40;;;0.40;;
13991;SDS011;7070;53.586;9.692;2022-07-05T01:22:00;0.40;;;0.40;;
13991;SDS011;7070;53.586;9.692;2022-07-05T01:24:31;0.47;;;0.47;;
13991;SDS011;7070;53.586;9.692;2022-07-05T01:26:58;0.40;;;0.40;;
13991;SDS011;7070;53.586;9.692;2022-07-05T01:29:25;0.40;;;0.40;;
13991;SDS011;7070;53.586;9.692;2022-07-05T01:31:52;0.40;;;0.40;;
13991;SDS011;7070;53.586;9.692;2022-07-05T01:34:19;0.40;;;0.40;;
13991;SDS011;7070;53.586;9.692;2022-07-05T01:36:46;0.40;;;0.40;;
13991;SDS011;7070;53.586;9.692;2022-07-05T01:39:12;0.50;;;0.50;;
13991;SDS011;7070;53.586;9.692;2022-07-05T01:41:42;0.50;;;0.50;;
13991;SDS011;7070;53.586;9.692;2022-07-05T01:44:08;0.40;;;0.40;;
13991;SDS011;7070;53.586;9.692;2022-07-05T01:46:36;0.50;;;0.50;;
13991;SDS011;7070;53.586;9.692;2022-07-05T01:49:06;0.50;;;0.50;;
13991;SDS011;7070;53.586;9.692;2022-07-05T01:51:37;0.47;;;0.47;;
13991;SDS011;7070;53.586;9.692;2022-07-05T01:54:10;0.50;;;0.50;;
13991;SDS011;7070;53.586;9.692;2022-07-05T01:56:37;0.50;;;0.50;;
13991;SDS011;7070;53.586;9.692;2022-07-05T01:59:06;0.50;;;0.50;;
13991;SDS011;7070;53.586;9.692;2022-07-05T02:01:34;0.40;;;0.40;;
13991;SDS011;7070;53.586;9.692;2022-07-05T02:04:02;0.50;;;0.50;;
13991;SDS011;7070;53.586;9.692;2022-07-05T02:06:30;0.40;;;0.40;;
13991;SDS011;7070;53.586;9.692;2022-07-05T02:08:58;0.40;;;0.40;;
13991;SDS011;7070;53.586;9.692;2022-07-05T02:11:25;0.40;;;0.40;;
13991;SDS011;7070;53.586;9.692;2022-07-05T02:13:52;0.40;;;0.40;;
13991;SDS011;7070;53.586;9.692;2022-07-05T02:16:23;0.40;;;0.40;;
13991;SDS011;7070;53.586;9.692;2022-07-05T02:18:50;0.50;;;0.50;;
13991;SDS011;7070;53.586;9.692;2022-07-05T02:21:17;0.50;;;0.50;;
13991;SDS011;7070;53.586;9.692;2022-07-05T02:23:44;0.50;;;0.50;;
13991;SDS011;7070;53.586;9.692;2022-07-05T02:26:11;0.40;;;0.40;;
13991;SDS011;7070;53.586;9.692;2022-07-05T02:28:38;0.40;;;0.40;;
13991;SDS011;7070;53.586;9.692;2022-07-05T02:31:05;0.43;;;0.43;;
13991;SDS011;7070;53.586;9.692;2022-07-05T02:33:33;0.40;;;0.40;;
13991;SDS011;7070;53.586;9.692;2022-07-05T02:36:05;0.40;;;0.40;;
13991;SDS011;7070;53.586;9.692;2022-07-05T02:38:33;0.40;;;0.40;;
13991;SDS011;7070;53.586;9.692;2022-07-05T02:41:00;0.40;;;0.40;;
13991;SDS011;7070;53.586;9.692;2022-07-05T02:43:29;0.40;;;0.40;;
13991;SDS011;7070;53.586;9.692;2022-07-05T02:45:56;0.50;;;0.50;;
13991;SDS011;7070;53.586;9.692;2022-07-05T02:48:23;0.40;;;0.40;;
13991;SDS011;7070;53.586;9.692;2022-07-05T02:50:51;0.50;;;0.50;;
13991;SDS011;7070;53.586;9.692;2022-07-05T02:53:18;0.40;;;0.40;;
13991;SDS011;7070;53.586;9.692;2022-07-05T02:55:45;0.40;;;0.40;;
13991;SDS011;7070;53.586;9.692;2022-07-05T02:58:12;0.40;;;0.40;;
13991;SDS011;7070;53.586;9.692;2022-07-05T03:00:39;0.40;;;0.40;;
13991;SDS011;7070;53.586;9.692;2022-07-05T03:03:05;0.50;;;0.50;;
13991;SDS011;7070;53.586;9.692;2022-07-05T03:05:32;0.40;;;0.40;;
13991;SDS011;7070;53.586;9.692;2022-07-05T03:08:00;0.50;;;0.50;;
13991;SDS011;7070;53.586;9.692;2022-07-05T03:10:27;0.50;;;0.50;;
13991;SDS011;7070;53.586;9.692;2022-07-05T03:12:54;0.40;;;0.40;;
13991;SDS011;7070;53.586;9.692;2022-07-05T03:15:21;0.40;;;0.40;;
13991;SDS011;7070;53.586;9.692;2022-07-05T03:17:48;0.40;;;0.40;;
13991;SDS011;7070;53.586;9.692;2022-07-05T03:20:14;0.50;;;0.50;;
13991;SDS011;7070;53.586;9.692;2022-07-05T03:22:41;0.47;;;0.47;;
13991;SDS011;7070;53.586;9.692;2022-07-05T03:25:09;0.50;;;0.50;;
13991;SDS011;7070;53.586;9.692;2022-07-05T03:27:36;0.47;;;0.47;;
13991;SDS011;7070;53.586;9.692;2022-07-05T03:30:04;0.50;;;0.50;;
13991;SDS011;7070;53.586;9.692;2022-07-05T03:32:31;0.40;;;0.40;;
13991;SDS011;7070;53.586;9.692;2022-07-05T03:34:58;0.50;;;0.50;;
13991;SDS011;7070;53.586;9.692;2022-07-05T03:37:25;0.50;;;0.50;;
13991;SDS011;7070;53.586;9.692;2022-07-05T03:39:52;0.50;;;0.50;;
13991;SDS011;7070;53.586;9.692;2022-07-05T03:42:20;0.50;;;0.50;;
13991;SDS011;7070;53.586;9.692;2022-07-05T03:44:47;0.50;;;0.50;;
13991;SDS011;7070;53.586;9.692;2022-07-05T03:47:13;0.40;;;0.40;;
13991;SDS011;7070;53.586;9.692;2022-07-05T03:49:40;0.47;;;0.47;;
13991;SDS011;7070;53.586;9.692;2022-07-05T03:52:08;0.40;;;0.40;;
13991;SDS011;7070;53.586;9.692;2022-07-05T03:54:35;0.40;;;0.40;;
13991;SDS011;7070;53.586;9.692;2022-07-05T03:57:02;0.50;;;0.50;;
13991;SDS011;7070;53.586;9.692;2022-07-05T03:59:30;0.43;;;0.43;;
13991;SDS011;7070;53.586;9.692;2022-07-05T04:01:57;0.47;;;0.47;;
13991;SDS011;7070;53.586;9.692;2022-07-05T04:04:24;0.40;;;0.40;;
13991;SDS011;7070;53.586;9.692;2022-07-05T04:06:50;0.50;;;0.50;;
13991;SDS011;7070;53.586;9.692;2022-07-05T04:09:17;0.50;;;0.50;;
13991;SDS011;7070;53.586;9.692;2022-07-05T04:11:44;0.50;;;0.50;;
13991;SDS011;7070;53.586;9.692;2022-07-05T04:14:11;0.40;;;0.40;;
13991;SDS011;7070;53.586;9.692;2022-07-05T04:16:39;0.50;;;0.50;;
13991;SDS011;7070;53.586;9.692;2022-07-05T04:19:06;0.40;;;0.40;;
13991;SDS011;7070;53.586;9.692;2022-07-05T04:21:33;0.50;;;0.50;;
13991;SDS011;7070;53.586;9.692;2022-07-05T04:24:00;0.50;;;0.50;;
13991;SDS011;7070;53.586;9.692;2022-07-05T04:26:27;0.50;;;0.50;;
13991;SDS011;7070;53.586;9.692;2022-07-05T04:28:53;0.50;;;0.50;;
13991;SDS011;7070;53.586;9.692;2022-07-05T04:31:20;0.40;;;0.40;;
13991;SDS011;7070;53.586;9.692;2022-07-05T04:33:48;0.50;;;0.50;;
13991;SDS011;7070;53.586;9.692;2022-07-05T04:36:15;0.60;;;0.60;;
13991;SDS011;7070;53.586;9.692;2022-07-05T04:38:42;0.50;;;0.50;;
13991;SDS011;7070;53.586;9.692;2022-07-05T04:41:09;0.40;;;0.40;;
13991;SDS011;7070;53.586;9.692;2022-07-05T04:43:36;0.50;;;0.50;;
13991;SDS011;7070;53.586;9.692;2022-07-05T04:46:03;0.60;;;0.60;;
13991;SDS011;7070;53.586;9.692;2022-07-05T04:48:30;0.50;;;0.50;;
13991;SDS011;7070;53.586;9.692;2022-07-05T04:50:58;0.50;;;0.50;;
13991;SDS011;7070;53.586;9.692;2022-07-05T04:53:25;0.40;;;0.40;;
13991;SDS011;7070;53.586;9.692;2022-07-05T04:55:51;0.40;;;0.40;;
13991;SDS011;7070;53.586;9.692;2022-07-05T04:58:18;0.40;;;0.40;;
13991;SDS011;7070;53.586;9.692;2022-07-05T05:00:45;0.40;;;0.40;;
13991;SDS011;7070;53.586;9.692;2022-07-05T05:03:12;0.40;;;0.40;;
13991;SDS011;7070;53.586;9.692;2022-07-05T05:05:39;0.40;;;0.40;;
13991;SDS011;7070;53.586;9.692;2022-07-05T05:08:07;0.30;;;0.30;;
13991;SDS011;7070;53.586;9.692;2022-07-05T05:10:34;0.50;;;0.50;;
13991;SDS011;7070;53.586;9.692;2022-07-05T05:13:01;0.40;;;0.40;;
13991;SDS011;7070;53.586;9.692;2022-07-05T05:15:28;0.40;;;0.40;;
13991;SDS011;7070;53.586;9.692;2022-07-05T05:17:54;0.40;;;0.40;;
13991;SDS011;7070;53.586;9.692;2022-07-05T05:20:21;0.40;;;0.40;;
13991;SDS011;7070;53.586;9.692;2022-07-05T05:22:48;0.40;;;0.40;;
13991;SDS011;7070;53.586;9.692;2022-07-05T05:25:16;0.30;;;0.30;;
13991;SDS011;7070;53.586;9.692;2022-07-05T05:27:44;0.30;;;0.30;;
13991;SDS011;7070;53.586;9.692;2022-07-05T05:30:12;0.23;;;0.23;;
13991;SDS011;7070;53.586;9.692;2022-07-05T05:32:40;0.40;;;0.40;;
13991;SDS011;7070;53.586;9.692;2022-07-05T05:35:07;0.40;;;0.40;;
13991;SDS011;7070;53.586;9.692;2022-07-05T05:37:44;0.30;;;0.30;;
13991;SDS011;7070;53.586;9.692;2022-07-05T05:40:12;0.30;;;0.30;;
13991;SDS011;7070;53.586;9.692;2022-07-05T05:42:43;0.37;;;0.37;;
13991;SDS011;7070;53.586;9.692;2022-07-05T05:45:10;0.33;;;0.33;;
13991;SDS011;7070;53.586;9.692;2022-07-05T05:47:47;0.30;;;0.30;;
13991;SDS011;7070;53.586;9.692;2022-07-05T05:50:19;0.30;;;0.30;;
13991;SDS011;7070;53.586;9.692;2022-07-05T05:52:46;0.30;;;0.30;;
13991;SDS011;7070;53.586;9.692;2022-07-05T05:55:13;0.30;;;0.30;;
13991;SDS011;7070;53.586;9.692;2022-07-05T05:57:41;0.30;;;0.30;;
13991;SDS011;7070;53.586;9.692;2022-07-05T06:00:09;0.20;;;0.20;;
13991;SDS011;7070;53.586;9.692;2022-07-05T06:02:36;0.30;;;0.30;;
13991;SDS011;7070;53.586;9.692;2022-07-05T06:05:04;0.30;;;0.30;;
13991;SDS011;7070;53.586;9.692;2022-07-05T06:07:31;0.30;;;0.30;;
13991;SDS011;7070;53.586;9.692;2022-07-05T06:10:09;0.20;;;0.20;;
13991;SDS011;7070;53.586;9.692;2022-07-05T06:12:36;0.40;;;0.40;;
13991;SDS011;7070;53.586;9.692;2022-07-05T06:15:05;0.30;;;0.30;;
13991;SDS011;7070;53.586;9.692;2022-07-05T06:17:35;0.30;;;0.30;;
13991;SDS011;7070;53.586;9.692;2022-07-05T06:20:03;0.30;;;0.30;;
13991;SDS011;7070;53.586;9.692;2022-07-05T06:22:31;0.30;;;0.30;;
13991;SDS011;7070;53.586;9.692;2022-07-05T06:24:58;0.30;;;0.30;;
13991;SDS011;7070;53.586;9.692;2022-07-05T06:27:25;0.30;;;0.30;;
13991;SDS011;7070;53.586;9.692;2022-07-05T06:29:52;0.30;;;0.30;;
13991;SDS011;7070;53.586;9.692;2022-07-05T06:32:20;0.30;;;0.30;;
13991;SDS011;7070;53.586;9.692;2022-07-05T06:34:47;0.20;;;0.20;;
13991;SDS011;7070;53.586;9.692;2022-07-05T06:37:14;0.30;;;0.30;;
13991;SDS011;7070;53.586;9.692;2022-07-05T06:39:41;0.30;;;0.30;;
13991;SDS011;7070;53.586;9.692;2022-07-05T06:42:08;0.30;;;0.30;;
13991;SDS011;7070;53.586;9.692;2022-07-05T06:44:35;0.23;;;0.23;;
13991;SDS011;7070;53.586;9.692;2022-07-05T06:47:02;0.30;;;0.30;;
13991;SDS011;7070;53.586;9.692;2022-07-05T06:49:31;0.30;;;0.30;;
13991;SDS011;7070;53.586;9.692;2022-07-05T06:51:57;0.30;;;0.30;;
13991;SDS011;7070;53.586;9.692;2022-07-05T06:54:24;0.30;;;0.30;;
13991;SDS011;7070;53.586;9.692;2022-07-05T06:56:51;0.30;;;0.30;;
13991;SDS011;7070;53.586;9.692;2022-07-05T06:59:20;0.40;;;0.40;;
13991;SDS011;7070;53.586;9.692;2022-07-05T07:01:47;0.30;;;0.30;;
13991;SDS011;7070;53.586;9.692;2022-07-05T07:04:13;0.20;;;0.20;;
13991;SDS011;7070;53.586;9.692;2022-07-05T07:06:42;0.30;;;0.30;;
13991;SDS011;7070;53.586;9.692;2022-07-05T07:09:08;0.27;;;0.27;;
13991;SDS011;7070;53.586;9.692;2022-07-05T07:11:43;0.30;;;0.30;;
13991;SDS011;7070;53.586;9.692;2022-07-05T07:14:11;0.27;;;0.27;;
13991;SDS011;7070;53.586;9.692;2022-07-05T07:16:38;0.30;;;0.30;;
13991;SDS011;7070;53.586;9.692;2022-07-05T07:19:05;0.20;;;0.20;;
13991;SDS011;7070;53.586;9.692;2022-07-05T07:21:32;0.30;;;0.30;;
13991;SDS011;7070;53.586;9.692;2022-07-05T07:24:00;0.40;;;0.40;;
13991;SDS011;7070;53.586;9.692;2022-07-05T07:26:27;0.30;;;0.30;;
13991;SDS011;7070;53.586;9.692;2022-07-05T07:28:54;0.30;;;0.30;;
13991;SDS011;7070;53.586;9.692;2022-07-05T07:31:21;0.30;;;0.30;;
13991;SDS011;7070;53.586;9.692;2022-07-05T07:33:48;0.30;;;0.30;;
13991;SDS011;7070;53.586;9.692;2022-07-05T07:36:14;0.30;;;0.30;;
13991;SDS011;7070;53.586;9.692;2022-07-05T07:38:41;0.40;;;0.40;;
13991;SDS011;7070;53.586;9.692;2022-07-05T07:41:10;0.23;;;0.23;;
13991;SDS011;7070;53.586;9.692;2022-07-05T07:43:36;0.30;;;0.30;;
13991;SDS011;7070;53.586;9.692;2022-07-05T07:46:03;0.30;;;0.30;;
13991;SDS011;7070;53.586;9.692;2022-07-05T07:48:30;0.20;;;0.20;;
13991;SDS011;7070;53.586;9.692;2022-07-05T07:50:57;0.30;;;0.30;;
13991;SDS011;7070;53.586;9.692;2022-07-05T07:53:24;0.30;;;0.30;;
13991;SDS011;7070;53.586;9.692;2022-07-05T07:55:51;0.30;;;0.30;;
13991;SDS011;7070;53.586;9.692;2022-07-05T07:58:19;0.30;;;0.30;;
13991;SDS011;7070;53.586;9.692;2022-07-05T08:00:46;0.30;;;0.30;;
13991;SDS011;7070;53.586;9.692;2022-07-05T08:03:12;0.40;;;0.40;;
13991;SDS011;7070;53.586;9.692;2022-07-05T08:05:39;0.30;;;0.30;;
13991;SDS011;7070;53.586;9.692;2022-07-05T08:08:06;0.20;;;0.20;;
13991;SDS011;7070;53.586;9.692;2022-07-05T08:10:33;0.30;;;0.30;;
13991;SDS011;7070;53.586;9.692;2022-07-05T08:13:00;0.30;;;0.30;;
13991;SDS011;7070;53.586;9.692;2022-07-05T08:15:28;0.30;;;0.30;;
13991;SDS011;7070;53.586;9.692;2022-07-05T08:17:55;0.30;;;0.30;;
13991;SDS011;7070;53.586;9.692;2022-07-05T08:20:39;0.30;;;0.30;;
13991;SDS011;7070;53.586;9.692;2022-07-05T08:23:23;0.30;;;0.30;;
13991;SDS011;7070;53.586;9.692;2022-07-05T08:25:50;0.30;;;0.30;;
13991;SDS011;7070;53.586;9.692;2022-07-05T08:28:17;0.30;;;0.30;;
13991;SDS011;7070;53.586;9.692;2022-07-05T08:30:45;0.30;;;0.30;;
13991;SDS011;7070;53.586;9.692;2022-07-05T08:33:12;0.20;;;0.20;;
13991;SDS011;7070;53.586;9.692;2022-07-05T08:35:39;0.20;;;0.20;;
13991;SDS011;7070;53.586;9.692;2022-07-05T08:38:06;0.20;;;0.20;;
13991;SDS011;7070;53.586;9.692;2022-07-05T08:40:33;0.30;;;0.30;;
13991;SDS011;7070;53.586;9.692;2022-07-05T08:43:04;0.30;;;0.30;;
13991;SDS011;7070;53.586;9.692;2022-07-05T08:45:32;0.30;;;0.30;;
13991;SDS011;7070;53.586;9.692;2022-07-05T08:48:01;0.30;;;0.30;;
13991;SDS011;7070;53.586;9.692;2022-07-05T08:50:29;0.20;;;0.20;;
13991;SDS011;7070;53.586;9.692;2022-07-05T08:52:58;0.27;;;0.27;;
13991;SDS011;7070;53.586;9.692;2022-07-05T08:55:26;0.30;;;0.30;;
13991;SDS011;7070;53.586;9.692;2022-07-05T08:57:53;0.30;;;0.30;;
13991;SDS011;7070;53.586;9.692;2022-07-05T09:00:20;0.23;;;0.23;;
13991;SDS011;7070;53.586;9.692;2022-07-05T09:02:46;0.30;;;0.30;;
13991;SDS011;7070;53.586;9.692;2022-07-05T09:05:16;0.30;;;0.30;;
13991;SDS011;7070;53.586;9.692;2022-07-05T09:07:48;0.40;;;0.40;;
13991;SDS011;7070;53.586;9.692;2022-07-05T09:10:24;0.30;;;0.30;;
13991;SDS011;7070;53.586;9.692;2022-07-05T09:12:53;0.30;;;0.30;;
13991;SDS011;7070;53.586;9.692;2022-07-05T09:15:20;0.30;;;0.30;;
13991;SDS011;7070;53.586;9.692;2022-07-05T09:17:47;0.27;;;0.27;;
13991;SDS011;7070;53.586;9.692;2022-07-05T09:20:15;0.13;;;0.13;;
13991;SDS011;7070;53.586;9.692;2022-07-05T09:22:45;0.20;;;0.20;;
13991;SDS011;7070;53.586;9.692;2022-07-05T09:25:17;0.30;;;0.30;;
13991;SDS011;7070;53.586;9.692;2022-07-05T09:27:49;0.20;;;0.20;;
13991;SDS011;7070;53.586;9.692;2022-07-05T09:30:23;0.20;;;0.20;;
13991;SDS011;7070;53.586;9.692;2022-07-05T09:33:01;0.30;;;0.30;;
13991;SDS011;7070;53.586;9.692;2022-07-05T09:35:31;0.30;;;0.30;;
13991;SDS011;7070;53.586;9.692;2022-07-05T09:37:59;0.20;;;0.20;;
13991;SDS011;7070;53.586;9.692;2022-07-05T09:40:28;0.20;;;0.20;;
13991;SDS011;7070;53.586;9.692;2022-07-05T09:43:09;0.20;;;0.20;;
13991;SDS011;7070;53.586;9.692;2022-07-05T09:45:37;0.30;;;0.30;;
13991;SDS011;7070;53.586;9.692;2022-07-05T09:48:04;0.23;;;0.23;;
13991;SDS011;7070;53.586;9.692;2022-07-05T09:50:34;0.30;;;0.30;;
13991;SDS011;7070;53.586;9.692;2022-07-05T09:53:02;0.20;;;0.20;;
13991;SDS011;7070;53.586;9.692;2022-07-05T09:55:29;0.30;;;0.30;;
13991;SDS011;7070;53.586;9.692;2022-07-05T09:57:57;0.30;;;0.30;;
13991;SDS011;7070;53.586;9.692;2022-07-05T10:00:24;0.20;;;0.20;;
13991;SDS011;7070;53.586;9.692;2022-07-05T10:02:52;0.20;;;0.20;;
13991;SDS011;7070;53.586;9.692;2022-07-05T10:05:27;0.30;;;0.30;;
13991;SDS011;7070;53.586;9.692;2022-07-05T10:07:57;0.20;;;0.20;;
13991;SDS011;7070;53.586;9.692;2022-07-05T10:10:25;0.40;;;0.40;;
13991;SDS011;7070;53.586;9.692;2022-07-05T10:12:54;0.23;;;0.23;;
13991;SDS011;7070;53.586;9.692;2022-07-05T10:15:23;0.20;;;0.20;;
13991;SDS011;7070;53.586;9.692;2022-07-05T10:17:53;0.27;;;0.27;;
13991;SDS011;7070;53.586;9.692;2022-07-05T10:20:24;0.27;;;0.27;;
13991;SDS011;7070;53.586;9.692;2022-07-05T10:22:54;0.30;;;0.30;;
13991;SDS011;7070;53.586;9.692;2022-07-05T10:25:24;0.30;;;0.30;;
13991;SDS011;7070;53.586;9.692;2022-07-05T10:27:54;0.30;;;0.30;;
13991;SDS011;7070;53.586;9.692;2022-07-05T10:30:23;0.20;;;0.20;;
13991;SDS011;7070;53.586;9.692;2022-07-05T10:32:51;0.20;;;0.20;;
13991;SDS011;7070;53.586;9.692;2022-07-05T10:35:18;0.20;;;0.20;;
13991;SDS011;7070;53.586;9.692;2022-07-05T10:37:46;0.20;;;0.20;;
13991;SDS011;7070;53.586;9.692;2022-07-05T10:40:16;0.20;;;0.20;;
13991;SDS011;7070;53.586;9.692;2022-07-05T10:42:45;0.20;;;0.20;;
13991;SDS011;7070;53.586;9.692;2022-07-05T10:45:27;0.20;;;0.20;;
13991;SDS011;7070;53.586;9.692;2022-07-05T10:48:11;0.20;;;0.20;;
13991;SDS011;7070;53.586;9.692;2022-07-05T10:50:42;0.22;;;0.22;;
13991;SDS011;7070;53.586;9.692;2022-07-05T10:53:10;0.30;;;0.30;;
13991;SDS011;7070;53.586;9.692;2022-07-05T10:55:47;0.20;;;0.20;;
13991;SDS011;7070;53.586;9.692;2022-07-05T10:58:20;0.20;;;0.20;;
13991;SDS011;7070;53.586;9.692;2022-07-05T11:00:49;0.20;;;0.20;;
13991;SDS011;7070;53.586;9.692;2022-07-05T11:04:18;0.27;;;0.27;;
13991;SDS011;7070;53.586;9.692;2022-07-05T11:06:55;0.28;;;0.28;;
13991;SDS011;7070;53.586;9.692;2022-07-05T11:09:23;0.28;;;0.28;;
13991;SDS011;7070;53.586;9.692;2022-07-05T11:14:36;0.20;;;0.20;;
13991;SDS011;7070;53.586;9.692;2022-07-05T11:17:23;0.27;;;0.27;;
13991;SDS011;7070;53.586;9.692;2022-07-05T11:19:58;0.30;;;0.30;;
13991;SDS011;7070;53.586;9.692;2022-07-05T11:22:26;0.30;;;0.30;;
13991;SDS011;7070;53.586;9.692;2022-07-05T11:24:55;0.20;;;0.20;;
13991;SDS011;7070;53.586;9.692;2022-07-05T11:27:24;0.30;;;0.30;;
13991;SDS011;7070;53.586;9.692;2022-07-05T11:29:52;0.30;;;0.30;;
13991;SDS011;7070;53.586;9.692;2022-07-05T11:32:20;0.30;;;0.30;;
13991;SDS011;7070;53.586;9.692;2022-07-05T11:34:49;0.20;;;0.20;;
13991;SDS011;7070;53.586;9.692;2022-07-05T11:37:17;0.30;;;0.30;;
13991;SDS011;7070;53.586;9.692;2022-07-05T11:40:25;0.30;;;0.30;;
13991;SDS011;7070;53.586;9.692;2022-07-05T11:42:56;0.30;;;0.30;;
13991;SDS011;7070;53.586;9.692;2022-07-05T11:45:24;0.20;;;0.20;;
13991;SDS011;7070;53.586;9.692;2022-07-05T11:47:51;0.30;;;0.30;;
13991;SDS011;7070;53.586;9.692;2022-07-05T11:50:25;0.30;;;0.30;;
13991;SDS011;7070;53.586;9.692;2022-07-05T11:52:53;0.30;;;0.30;;
13991;SDS011;7070;53.586;9.692;2022-07-05T11:55:20;0.20;;;0.20;;
13991;SDS011;7070;53.586;9.692;2022-07-05T11:57:50;0.20;;;0.20;;
13991;SDS011;7070;53.586;9.692;2022-07-05T12:00:32;0.25;;;0.25;;
13991;SDS011;7070;53.586;9.692;2022-07-05T12:03:00;0.30;;;0.30;;
13991;SDS011;7070;53.586;9.692;2022-07-05T12:05:36;0.30;;;0.30;;
13991;SDS011;7070;53.586;9.692;2022-07-05T12:08:03;0.30;;;0.30;;
13991;SDS011;7070;53.586;9.692;2022-07-05T12:10:30;0.22;;;0.22;;
13991;SDS011;7070;53.586;9.692;2022-07-05T12:13:15;0.20;;;0.20;;
13991;SDS011;7070;53.586;9.692;2022-07-05T12:15:43;0.30;;;0.30;;
13991;SDS011;7070;53.586;9.692;2022-07-05T12:18:11;0.20;;;0.20;;
13991;SDS011;7070;53.586;9.692;2022-07-05T12:20:40;0.25;;;0.25;;
13991;SDS011;7070;53.586;9.692;2022-07-05T12:23:07;0.25;;;0.25;;
13991;SDS011;7070;53.586;9.692;2022-07-05T12:25:35;0.25;;;0.25;;
13991;SDS011;7070;53.586;9.692;2022-07-05T12:28:03;0.30;;;0.30;;
13991;SDS011;7070;53.586;9.692;2022-07-05T12:30:32;0.20;;;0.20;;
13991;SDS011;7070;53.586;9.692;2022-07-05T12:33:01;0.20;;;0.20;;
13991;SDS011;7070;53.586;9.692;2022-07-05T12:35:30;0.20;;;0.20;;
13991;SDS011;7070;53.586;9.692;2022-07-05T12:38:01;0.30;;;0.30;;
13991;SDS011;7070;53.586;9.692;2022-07-05T12:40:33;0.20;;;0.20;;
13991;SDS011;7070;53.586;9.692;2022-07-05T12:43:01;0.20;;;0.20;;
13991;SDS011;7070;53.586;9.692;2022-07-05T12:45:30;0.20;;;0.20;;
13991;SDS011;7070;53.586;9.692;2022-07-05T12:47:57;0.20;;;0.20;;
13991;SDS011;7070;53.586;9.692;2022-07-05T12:50:29;0.20;;;0.20;;
13991;SDS011;7070;53.586;9.692;2022-07-05T12:52:57;0.20;;;0.20;;
13991;SDS011;7070;53.586;9.692;2022-07-05T12:55:33;0.20;;;0.20;;
13991;SDS011;7070;53.586;9.692;2022-07-05T12:58:18;0.20;;;0.20;;
13991;SDS011;7070;53.586;9.692;2022-07-05T13:00:44;0.20;;;0.20;;
13991;SDS011;7070;53.586;9.692;2022-07-05T13:03:13;0.20;;;0.20;;
13991;SDS011;7070;53.586;9.692;2022-07-05T13:05:40;0.20;;;0.20;;
13991;SDS011;7070;53.586;9.692;2022-07-05T13:08:07;0.20;;;0.20;;
13991;SDS011;7070;53.586;9.692;2022-07-05T13:10:34;0.20;;;0.20;;
13991;SDS011;7070;53.586;9.692;2022-07-05T13:13:11;0.27;;;0.27;;
13991;SDS011;7070;53.586;9.692;2022-07-05T13:15:39;0.20;;;0.20;;
13991;SDS011;7070;53.586;9.692;2022-07-05T13:18:05;0.20;;;0.20;;
13991;SDS011;7070;53.586;9.692;2022-07-05T13:20:34;0.20;;;0.20;;
13991;SDS011;7070;53.586;9.692;2022-07-05T13:23:00;0.20;;;0.20;;
13991;SDS011;7070;53.586;9.692;2022-07-05T13:25:27;0.20;;;0.20;;
13991;SDS011;7070;53.586;9.692;2022-07-05T13:27:54;0.20;;;0.20;;
13991;SDS011;7070;53.586;9.692;2022-07-05T13:30:21;0.30;;;0.30;;
13991;SDS011;7070;53.586;9.692;2022-07-05T13:32:48;0.30;;;0.30;;
13991;SDS011;7070;53.586;9.692;2022-07-05T13:35:14;0.40;;;0.40;;
13991;SDS011;7070;53.586;9.692;2022-07-05T13:37:42;0.30;;;0.30;;
13991;SDS011;7070;53.586;9.692;2022-07-05T13:40:10;0.33;;;0.33;;
13991;SDS011;7070;53.586;9.692;2022-07-05T13:42:37;0.30;;;0.30;;
13991;SDS011;7070;53.586;9.692;2022-07-05T13:45:04;0.30;;;0.30;;
13991;SDS011;7070;53.586;9.692;2022-07-05T13:47:32;0.30;;;0.30;;
13991;SDS011;7070;53.586;9.692;2022-07-05T13:49:58;0.30;;;0.30;;
13991;SDS011;7070;53.586;9.692;2022-07-05T13:52:39;0.30;;;0.30;;
13991;SDS011;7070;53.586;9.692;2022-07-05T13:55:08;0.30;;;0.30;;
13991;SDS011;7070;53.586;9.692;2022-07-05T13:57:35;0.33;;;0.33;;
13991;SDS011;7070;53.586;9.692;2022-07-05T14:00:02;0.30;;;0.30;;
13991;SDS011;7070;53.586;9.692;2022-07-05T14:02:29;0.30;;;0.30;;
13991;SDS011;7070;53.586;9.692;2022-07-05T14:04:56;0.20;;;0.20;;
13991;SDS011;7070;53.586;9.692;2022-07-05T14:07:23;0.30;;;0.30;;
13991;SDS011;7070;53.586;9.692;2022-07-05T14:09:50;0.30;;;0.30;;
13991;SDS011;7070;53.586;9.692;2022-07-05T14:12:18;0.30;;;0.30;;
13991;SDS011;7070;53.586;9.692;2022-07-05T14:14:44;0.30;;;0.30;;
13991;SDS011;7070;53.586;9.692;2022-07-05T14:17:11;0.20;;;0.20;;
13991;SDS011;7070;53.586;9.692;2022-07-05T14:19:38;0.30;;;0.30;;
13991;SDS011;7070;53.586;9.692;2022-07-05T14:22:05;0.30;;;0.30;;
13991;SDS011;7070;53.586;9.692;2022-07-05T14:24:32;0.20;;;0.20;;
13991;SDS011;7070;53.586;9.692;2022-07-05T14:26:59;0.30;;;0.30;;
13991;SDS011;7070;53.586;9.692;2022-07-05T14:29:27;0.30;;;0.30;;
13991;SDS011;7070;53.586;9.692;2022-07-05T14:31:54;0.30;;;0.30;;
13991;SDS011;7070;53.586;9.692;2022-07-05T14:34:20;0.30;;;0.30;;
13991;SDS011;7070;53.586;9.692;2022-07-05T14:36:47;0.30;;;0.30;;
13991;SDS011;7070;53.586;9.692;2022-07-05T14:39:14;0.40;;;0.40;;
13991;SDS011;7070;53.586;9.692;2022-07-05T14:41:41;0.30;;;0.30;;
13991;SDS011;7070;53.586;9.692;2022-07-05T14:44:08;0.30;;;0.30;;
13991;SDS011;7070;53.586;9.692;2022-07-05T14:46:37;0.30;;;0.30;;
13991;SDS011;7070;53.586;9.692;2022-07-05T14:49:03;0.30;;;0.30;;
13991;SDS011;7070;53.586;9.692;2022-07-05T14:51:30;0.40;;;0.40;;
13991;SDS011;7070;53.586;9.692;2022-07-05T14:53:57;0.30;;;0.30;;
13991;SDS011;7070;53.586;9.692;2022-07-05T14:56:24;0.30;;;0.30;;
13991;SDS011;7070;53.586;9.692;2022-07-05T14:58:51;0.30;;;0.30;;
13991;SDS011;7070;53.586;9.692;2022-07-05T15:01:18;0.30;;;0.30;;
13991;SDS011;7070;53.586;9.692;2022-07-05T15:03:46;0.40;;;0.40;;
13991;SDS011;7070;53.586;9.692;2022-07-05T15:06:13;0.30;;;0.30;;
13991;SDS011;7070;53.586;9.692;2022-07-05T15:08:40;0.30;;;0.30;;
13991;SDS011;7070;53.586;9.692;2022-07-05T15:11:06;0.30;;;0.30;;